createdAt,value
2022-11-26T00:03:35.249Z,55.77
2022-11-26T00:08:40.732Z,58.67
2022-11-26T00:13:47.283Z,68.70
2022-11-26T00:18:52.346Z,65.37
2022-11-26T00:23:57.500Z,73.77
2022-11-26T00:29:02.796Z,88.73
2022-11-26T00:34:08.358Z,64.20
2022-11-26T00:39:21.092Z,65.03
2022-11-26T00:44:26.814Z,72.83
2022-11-26T00:49:31.911Z,69.30
2022-11-26T00:54:37.488Z,69.80
2022-11-26T00:59:43.230Z,71.63
2022-11-26T01:04:48.669Z,66.05
2022-11-26T01:09:54.691Z,64.13
2022-11-26T01:14:59.656Z,60.57
2022-11-26T01:20:05.289Z,68.83
2022-11-26T01:25:10.268Z,57.43
2022-11-26T01:30:27.770Z,57.03
2022-11-26T01:35:33.391Z,56.88
2022-11-26T01:40:53.708Z,55.00
2022-11-26T01:45:58.749Z,54.70
2022-11-26T01:51:06.339Z,52.07
2022-11-26T01:56:22.964Z,50.20
2022-11-26T02:01:28.659Z,53.38
2022-11-26T02:06:36.330Z,59.58
2022-11-26T02:11:42.669Z,81.10
2022-11-26T02:17:06.906Z,81.77
2022-11-26T02:22:20.548Z,77.00
2022-11-26T02:27:37.919Z,78.23
2022-11-26T02:38:04.216Z,72.50
2022-11-26T02:43:09.509Z,68.10
2022-11-26T02:48:24.037Z,59.83
2022-11-26T02:53:32.595Z,53.97
2022-11-26T02:58:38.605Z,51.42
2022-11-26T03:03:50.126Z,38.60
2022-11-26T03:08:56.972Z,48.13
2022-11-26T03:14:02.154Z,48.40
2022-11-26T03:19:07.228Z,48.60
2022-11-26T03:24:12.148Z,49.33
2022-11-26T03:29:17.086Z,48.83
2022-11-26T03:34:22.279Z,48.27
2022-11-26T03:39:27.572Z,46.43
2022-11-26T03:44:33.173Z,47.63
2022-11-26T03:49:39.311Z,46.00
2022-11-26T03:54:44.568Z,45.00
2022-11-26T03:59:49.609Z,44.77
2022-11-26T04:04:54.679Z,44.97
2022-11-26T04:10:00.681Z,45.10
2022-11-26T04:15:06.409Z,45.17
2022-11-26T04:20:11.713Z,44.87
2022-11-26T04:25:16.912Z,45.10
2022-11-26T04:30:22.092Z,45.47
2022-11-26T04:35:27.463Z,45.47
2022-11-26T04:40:33.383Z,45.70
2022-11-26T04:45:39.046Z,45.50
2022-11-26T04:50:44.218Z,45.93
2022-11-26T04:55:50.751Z,45.37
2022-11-26T05:00:56.043Z,46.63
2022-11-26T05:06:01.888Z,46.33
2022-11-26T05:11:07.885Z,47.03
2022-11-26T05:16:13.369Z,47.13
2022-11-26T05:21:18.797Z,46.40
2022-11-26T05:26:24.612Z,46.83
2022-11-26T05:31:31.037Z,46.40
2022-11-26T05:36:36.550Z,47.62
2022-11-26T05:41:41.996Z,48.00
2022-11-26T05:46:47.747Z,47.95
2022-11-26T05:51:52.647Z,48.37
2022-11-26T05:57:00.321Z,46.53
2022-11-26T06:07:10.292Z,46.23
2022-11-26T06:12:15.178Z,47.93
2022-11-26T06:17:20.259Z,46.43
2022-11-26T06:22:25.567Z,46.17
2022-11-26T06:27:34.678Z,46.83
2022-11-26T06:37:43.712Z,48.17
2022-11-26T06:42:51.398Z,46.88
2022-11-26T06:47:57.557Z,47.83
2022-11-26T06:53:02.438Z,48.43
2022-11-26T06:58:07.901Z,46.97
2022-11-26T07:03:14.293Z,47.45
2022-11-26T07:08:20.301Z,47.57
2022-11-26T07:13:25.159Z,47.27
2022-11-26T07:18:30.504Z,47.17
2022-11-26T07:23:36.126Z,47.77
2022-11-26T07:28:42.685Z,46.83
2022-11-26T07:33:48.977Z,47.50
2022-11-26T07:38:59.269Z,47.63
2022-11-26T07:44:04.400Z,47.40
2022-11-26T07:49:10.086Z,47.17
2022-11-26T07:54:15.628Z,48.87
2022-11-26T07:59:20.597Z,48.40
2022-11-26T08:04:25.462Z,47.97
2022-11-26T08:09:30.906Z,47.43
2022-11-26T08:14:36.115Z,47.03
2022-11-26T08:19:41.312Z,47.50
2022-11-26T08:24:46.520Z,47.23
2022-11-26T08:29:51.414Z,47.00
2022-11-26T08:34:56.874Z,47.37
2022-11-26T08:40:02.169Z,47.80
2022-11-26T08:45:07.931Z,47.60
2022-11-26T08:50:14.670Z,48.03
2022-11-26T08:55:23.949Z,49.18
2022-11-26T09:00:26.849Z,48.23
2022-11-26T09:05:32.825Z,49.63
2022-11-26T09:10:37.762Z,48.10
2022-11-26T09:15:42.825Z,47.83
2022-11-26T09:20:51.655Z,48.45
2022-11-26T09:25:56.007Z,48.40
2022-11-26T09:31:03.029Z,48.97
2022-11-26T09:36:13.721Z,48.57
2022-11-26T09:41:44.251Z,47.27
2022-11-26T09:47:11.030Z,48.43
2022-11-26T09:52:01.022Z,49.57
2022-11-26T09:57:31.952Z,49.05
2022-11-26T10:02:39.777Z,48.97
2022-11-26T10:07:56.726Z,49.00
2022-11-26T10:13:19.449Z,49.40
2022-11-26T10:18:33.432Z,48.20
2022-11-26T10:23:45.564Z,51.40
2022-11-26T10:28:54.454Z,49.53
2022-11-26T10:34:02.469Z,48.43
2022-11-26T10:39:10.558Z,47.40
2022-11-26T10:44:37.644Z,48.43
2022-11-26T10:49:44.013Z,49.13
2022-11-26T10:54:52.052Z,48.83
2022-11-26T10:59:58.388Z,49.03
2022-11-26T11:05:07.274Z,48.33
2022-11-26T11:10:15.515Z,48.90
2022-11-26T11:15:23.443Z,47.33
2022-11-26T11:20:35.781Z,47.27
2022-11-26T11:25:46.731Z,47.50
2022-11-26T11:31:04.120Z,48.25
2022-11-26T11:36:18.582Z,45.90
2022-11-26T11:41:32.542Z,45.47
2022-11-26T11:47:05.105Z,46.83
2022-11-26T11:52:18.678Z,46.53
2022-11-26T11:57:35.821Z,49.00
2022-11-26T12:02:59.580Z,47.73
2022-11-26T12:08:25.981Z,48.63
2022-11-26T12:13:34.276Z,47.67
2022-11-26T12:19:03.765Z,47.40
2022-11-26T12:24:12.486Z,48.73
2022-11-26T12:29:32.029Z,48.20
2022-11-26T12:34:46.271Z,47.87
2022-11-26T12:40:05.341Z,47.47
2022-11-26T12:45:22.119Z,47.93
2022-11-26T12:50:34.769Z,47.90
2022-11-26T12:55:44.269Z,48.43
2022-11-26T13:00:54.047Z,47.80
2022-11-26T13:06:23.236Z,49.60
2022-11-26T13:11:38.968Z,50.40
2022-11-26T13:16:57.162Z,51.20
2022-11-26T13:22:05.217Z,50.17
2022-11-26T13:27:25.521Z,47.57
2022-11-26T13:32:51.098Z,48.17
2022-11-26T13:38:11.101Z,48.37
2022-11-26T13:43:19.115Z,47.67
2022-11-26T13:48:40.957Z,47.27
2022-11-26T13:53:49.203Z,49.97
2022-11-26T13:58:58.408Z,47.13
2022-11-26T14:04:08.426Z,47.55
2022-11-26T14:09:16.996Z,48.77
2022-11-26T14:14:28.777Z,47.37
2022-11-26T14:19:47.527Z,51.13
2022-11-26T14:24:56.174Z,46.95
2022-11-26T14:30:10.880Z,47.73
2022-11-26T14:35:34.922Z,46.90
2022-11-26T14:40:40.250Z,47.20
2022-11-26T14:45:48.047Z,47.90
2022-11-26T14:50:55.607Z,48.53
2022-11-26T14:56:02.276Z,47.70
2022-11-26T15:01:19.562Z,46.60
2022-11-26T15:06:27.902Z,47.10
2022-11-26T15:11:34.976Z,47.93
2022-11-26T15:16:42.223Z,46.83
2022-11-26T15:21:47.332Z,47.37
2022-11-26T15:26:53.510Z,47.93
2022-11-26T15:31:59.517Z,46.57
2022-11-26T15:37:05.646Z,46.40
2022-11-26T15:42:23.799Z,47.23
2022-11-26T15:47:30.352Z,46.00
2022-11-26T15:52:37.168Z,50.28
2022-11-26T15:57:43.463Z,47.58
2022-11-26T16:02:48.851Z,49.57
2022-11-26T16:08:02.805Z,48.87
2022-11-26T16:13:20.644Z,47.90
2022-11-26T16:18:28.860Z,48.90
2022-11-26T16:23:34.409Z,49.00
2022-11-26T16:28:40.044Z,47.40
2022-11-26T16:33:45.688Z,46.30
2022-11-26T16:38:52.338Z,46.90
2022-11-26T16:43:58.790Z,45.93
2022-11-26T16:49:05.477Z,47.50
2022-11-26T16:54:10.607Z,46.57
2022-11-26T16:59:19.028Z,47.67
2022-11-26T17:04:24.070Z,48.63
2022-11-26T17:09:29.874Z,47.77
2022-11-26T17:19:41.949Z,47.30
2022-11-26T17:24:47.866Z,47.00
2022-11-26T17:29:53.054Z,46.03
2022-11-26T17:34:58.670Z,46.90
2022-11-26T17:40:04.932Z,46.80
2022-11-26T17:45:11.403Z,46.57
2022-11-26T17:50:27.069Z,47.10
2022-11-26T17:55:32.769Z,47.00
2022-11-26T18:00:38.346Z,46.07
2022-11-26T18:05:43.303Z,47.23
2022-11-26T18:10:48.294Z,47.37
2022-11-26T18:16:00.941Z,47.33
2022-11-26T18:21:07.071Z,48.83
2022-11-26T18:26:14.969Z,48.83
2022-11-26T18:31:19.993Z,49.67
2022-11-26T18:36:25.513Z,48.67
2022-11-26T18:41:31.506Z,47.60
2022-11-26T18:46:37.546Z,49.43
2022-11-26T18:51:43.684Z,48.40
2022-11-26T18:56:48.754Z,49.10
2022-11-26T19:01:54.365Z,49.27
2022-11-26T19:06:59.509Z,48.77
2022-11-26T19:12:04.916Z,48.33
2022-11-26T19:17:09.914Z,47.67
2022-11-26T19:22:15.377Z,53.47
2022-11-26T19:27:21.322Z,52.67
2022-11-26T19:32:26.573Z,49.10
2022-11-26T19:37:32.937Z,48.98
2022-11-26T19:42:38.138Z,48.00
2022-11-26T19:47:43.280Z,47.33
2022-11-26T19:52:48.943Z,47.33
2022-11-26T19:57:54.801Z,49.98
2022-11-26T20:02:59.777Z,48.13
2022-11-26T20:08:05.847Z,48.77
2022-11-26T20:13:12.392Z,48.60
2022-11-26T20:18:17.848Z,48.73
2022-11-26T20:23:23.893Z,49.60
2022-11-26T20:28:30.153Z,51.18
2022-11-26T20:33:37.882Z,48.96
2022-11-26T20:38:43.703Z,47.03
2022-11-26T20:43:51.361Z,45.53
2022-11-26T20:54:02.225Z,48.90
2022-11-26T20:59:09.773Z,47.30
2022-11-26T21:04:14.704Z,49.73
2022-11-26T21:09:19.600Z,56.77
2022-11-26T21:14:24.733Z,49.50
2022-11-26T21:19:30.220Z,48.23
2022-11-26T21:24:37.687Z,49.13
2022-11-26T21:29:43.367Z,49.40
2022-11-26T21:34:48.747Z,48.68
2022-11-26T21:39:54.072Z,47.37
2022-11-26T21:44:59.611Z,48.83
2022-11-26T21:50:05.996Z,46.57
2022-11-26T21:55:11.815Z,46.60
2022-11-26T22:00:17.937Z,46.30
2022-11-26T22:05:23.234Z,48.73
2022-11-26T22:10:32.026Z,49.30
2022-11-26T22:15:35.379Z,46.35
2022-11-26T22:20:40.340Z,46.27
2022-11-26T22:25:46.394Z,46.00
2022-11-26T22:30:52.275Z,48.45
2022-11-26T22:35:58.916Z,45.70
2022-11-26T22:41:06.588Z,46.83
2022-11-26T22:46:14.607Z,46.43
2022-11-26T22:51:20.559Z,46.00
2022-11-26T22:56:26.144Z,47.20
2022-11-26T23:01:33.651Z,46.00
2022-11-26T23:06:39.214Z,46.60
2022-11-26T23:11:45.522Z,46.87
2022-11-26T23:16:50.527Z,45.57
2022-11-26T23:21:56.443Z,48.17
2022-11-26T23:27:01.393Z,46.30
2022-11-26T23:32:06.423Z,47.73
2022-11-26T23:37:11.555Z,47.07
2022-11-26T23:42:16.879Z,47.03
2022-11-26T23:47:21.791Z,46.90
2022-11-26T23:52:27.540Z,51.00
2022-11-26T23:57:32.483Z,48.30
